Time;durP1;ratioP1;P1;durP2;ratioP2;P2;SDS_P1;SDS_P2;PMS_P1;PMS_P2;Temp;Humidity;BMP_temperature;BMP_pressure;BME280_temperature;BME280_humidity;BME280_pressure;Samples;Min_cycle;Max_cycle;Signal;HPM_P1;HPM_P2
2021/01/21 00:01:35;;;;;;;1.16;0.50;;;;;;;9.96;55.55;97596.13;2010169;77;20952;-77
2021/01/21 00:04:37;;;;;;;2.04;0.32;;;;;;;10.00;55.88;97594.28;2011238;80;20379;-75
2021/01/21 00:07:39;;;;;;;1.60;0.45;;;;;;;9.95;56.43;97604.81;2011191;80;20253;-77
2021/01/21 00:10:40;;;;;;;1.89;0.39;;;;;;;9.98;55.94;97583.09;2010454;80;20781;-77
2021/01/21 00:13:42;;;;;;;2.64;0.61;;;;;;;9.94;56.17;97582.38;2010408;80;20326;-76
2021/01/21 00:16:44;;;;;;;1.55;0.40;;;;;;;9.92;56.09;97567.75;2009562;77;24885;-75
2021/01/21 00:19:46;;;;;;;0.94;0.38;;;;;;;9.89;56.65;97560.06;2010834;80;20336;-80
2021/01/21 00:22:47;;;;;;;1.09;0.30;;;;;;;9.86;56.58;97570.53;2011110;80;20325;-76
2021/01/21 00:25:52;;;;;;;2.63;0.56;;;;;;;9.85;56.09;97551.53;2011851;80;20329;-76
2021/01/21 00:28:54;;;;;;;2.19;0.50;;;;;;;9.81;56.15;97549.94;2012745;80;20313;-76
2021/01/21 00:31:56;;;;;;;1.36;0.43;;;;;;;9.76;56.98;97544.06;2012243;78;21741;-75
2021/01/21 00:34:57;;;;;;;2.24;0.32;;;;;;;9.72;57.25;97539.00;2063340;70;20424;-77
2021/01/21 00:38:00;;;;;;;1.66;0.30;;;;;;;9.67;56.79;97527.03;2017196;80;20221;-76
2021/01/21 00:41:02;;;;;;;1.34;0.43;;;;;;;9.68;57.26;97528.72;2017745;80;20203;-76
2021/01/21 00:44:04;;;;;;;0.71;0.40;;;;;;;9.64;57.71;97528.88;2015018;80;20177;-78
2021/01/21 00:47:05;;;;;;;2.03;0.40;;;;;;;9.63;57.42;97522.84;2011538;78;20861;-75
2021/01/21 00:50:07;;;;;;;1.41;0.38;;;;;;;9.61;57.44;97516.84;2012323;80;20177;-76
2021/01/21 00:53:10;;;;;;;2.44;0.39;;;;;;;9.60;57.38;97512.56;2009893;80;20192;-76
2021/01/21 00:56:13;;;;;;;1.46;0.40;;;;;;;9.59;57.91;97502.25;2011684;80;20705;-76
2021/01/21 00:59:14;;;;;;;0.60;0.34;;;;;;;9.64;57.00;97493.44;2011403;80;20332;-76
2021/01/21 01:02:16;;;;;;;2.11;0.41;;;;;;;9.65;56.81;97492.53;2009827;78;21646;-75
2021/01/21 01:05:18;;;;;;;1.39;0.50;;;;;;;9.66;56.94;97485.63;2010760;80;20342;-76
2021/01/21 01:08:19;;;;;;;1.00;0.46;;;;;;;9.66;56.26;97490.78;2010729;80;20334;-78
2021/01/21 01:11:21;;;;;;;3.13;0.44;;;;;;;9.65;56.28;97483.91;2010669;80;20240;-76
2021/01/21 01:14:23;;;;;;;2.17;0.40;;;;;;;9.68;57.00;97483.81;2010918;80;20347;-76
2021/01/21 01:17:24;;;;;;;1.17;0.40;;;;;;;9.74;55.78;97475.88;2009628;78;49334;-76
2021/01/21 01:20:27;;;;;;;3.80;0.49;;;;;;;9.73;56.36;97476.78;2010868;80;20249;-75
2021/01/21 01:23:30;;;;;;;1.63;0.50;;;;;;;9.72;56.37;97466.44;2011141;80;20792;-75
2021/01/21 01:26:32;;;;;;;1.08;0.49;;;;;;;9.70;56.84;97479.47;2011118;80;20306;-75
2021/01/21 01:29:34;;;;;;;1.40;0.41;;;;;;;9.74;55.72;97459.47;2011138;80;20295;-75
2021/01/21 01:32:36;;;;;;;2.50;0.56;;;;;;;9.76;55.23;97447.31;2009644;78;20796;-76
2021/01/21 01:35:38;;;;;;;1.04;0.38;;;;;;;9.74;55.47;97447.38;2010703;80;20933;-76
2021/01/21 01:38:39;;;;;;;2.90;0.65;;;;;;;9.75;55.16;97443.88;2011178;80;20379;-75
2021/01/21 01:41:41;;;;;;;1.51;0.40;;;;;;;9.69;55.38;97457.00;2010283;80;20214;-75
2021/01/21 01:44:43;;;;;;;1.11;0.39;;;;;;;9.75;55.13;97453.38;2010238;80;20950;-75
2021/01/21 01:47:45;;;;;;;1.44;0.31;;;;;;;9.73;55.45;97456.03;2009231;78;20318;-75
2021/01/21 01:50:47;;;;;;;1.94;0.50;;;;;;;9.72;55.41;97454.34;2010889;80;21139;-75
2021/01/21 01:53:49;;;;;;;2.06;0.40;;;;;;;9.72;55.73;97456.09;2011325;80;20660;-75
2021/01/21 01:56:52;;;;;;;0.96;0.39;;;;;;;9.76;55.40;97450.75;2011735;80;20360;-75
2021/01/21 01:59:58;;;;;;;0.74;0.50;;;;;;;9.72;55.60;97456.94;2012435;80;20347;-75
2021/01/21 02:03:00;;;;;;;1.59;0.40;;;;;;;9.69;56.07;97459.59;2010491;78;21748;-75
2021/01/21 02:06:03;;;;;;;0.75;0.36;;;;;;;9.67;55.96;97438.91;2011851;80;20338;-75
2021/01/21 02:09:05;;;;;;;0.65;0.30;;;;;;;9.70;55.93;97443.19;2011671;80;20314;-76
2021/01/21 02:12:19;;;;;;;1.86;0.50;;;;;;;9.66;56.29;97428.59;2011877;80;20302;-76
2021/01/21 02:15:41;;;;;;;2.31;0.40;;;;;;;9.62;56.49;97442.56;2011308;78;21609;-75
2021/01/21 02:18:56;;;;;;;1.11;0.40;;;;;;;9.56;56.73;97424.63;2011307;80;20345;-75
2021/01/21 02:22:28;;;;;;;1.02;0.47;;;;;;;9.59;57.25;97422.78;2012334;80;20356;-75
2021/01/21 02:25:43;;;;;;;0.74;0.38;;;;;;;9.56;56.83;97430.66;2011503;80;21296;-76
2021/01/21 02:29:01;;;;;;;1.17;0.39;;;;;;;9.69;56.65;97418.13;2011939;80;20321;-75
2021/01/21 02:32:05;;;;;;;1.00;0.30;;;;;;;9.73;56.38;97413.72;2010930;78;21180;-75
2021/01/21 02:35:12;;;;;;;0.75;0.40;;;;;;;9.72;56.72;97412.88;2011475;80;20354;-77
2021/01/21 02:38:15;;;;;;;1.33;0.64;;;;;;;9.75;56.31;97402.41;2012280;80;20817;-75
2021/01/21 02:41:18;;;;;;;1.94;0.43;;;;;;;9.79;56.71;97403.16;2012568;80;20884;-75
2021/01/21 02:44:19;;;;;;;1.80;0.41;;;;;;;9.77;56.97;97382.47;2011917;80;20336;-74
2021/01/21 02:47:22;;;;;;;2.29;0.77;;;;;;;9.79;56.87;97400.56;2010371;78;22597;-75
2021/01/21 02:50:24;;;;;;;1.58;0.32;;;;;;;9.83;56.49;97391.78;2012399;80;20787;-75
2021/01/21 02:53:27;;;;;;;1.15;0.32;;;;;;;9.87;56.63;97398.53;2011322;80;20360;-75
2021/01/21 02:56:34;;;;;;;0.43;0.30;;;;;;;9.85;57.62;97406.38;2011730;80;20165;-76
2021/01/21 02:59:39;;;;;;;1.81;0.65;;;;;;;9.84;57.24;97402.09;2012177;80;20186;-74
2021/01/21 03:02:44;;;;;;;1.84;0.40;;;;;;;9.86;57.15;97399.44;2011653;77;23721;-75
2021/01/21 03:05:56;;;;;;;0.56;0.34;;;;;;;9.84;57.47;97403.81;2013398;80;20310;-76
2021/01/21 03:08:59;;;;;;;1.35;0.30;;;;;;;9.85;57.72;97393.41;2013088;80;20310;-74
2021/01/21 03:12:20;;;;;;;1.04;0.49;;;;;;;9.85;57.58;97390.81;2012867;80;20185;-75
2021/01/21 03:15:23;;;;;;;1.33;0.40;;;;;;;9.86;58.26;97373.50;2012226;78;21628;-75
2021/01/21 03:18:24;;;;;;;0.94;0.26;;;;;;;9.86;57.90;97383.88;2013136;80;20198;-75
2021/01/21 03:21:26;;;;;;;1.85;0.44;;;;;;;9.89;57.85;97397.63;2011725;80;20330;-76
2021/01/21 03:24:28;;;;;;;1.91;0.46;;;;;;;9.89;58.41;97394.19;2011946;80;20776;-76
2021/01/21 03:27:29;;;;;;;1.81;0.35;;;;;;;9.90;58.66;97380.31;2011377;80;20716;-76
2021/01/21 03:30:31;;;;;;;1.24;0.51;;;;;;;9.91;58.85;97382.84;2009744;78;37270;-75
2021/01/21 03:33:33;;;;;;;2.99;0.40;;;;;;;9.89;58.93;97371.69;2010776;80;20208;-75
2021/01/21 03:36:35;;;;;;;0.41;0.30;;;;;;;9.94;58.66;97397.44;2010574;80;20343;-76
2021/01/21 03:39:36;;;;;;;0.79;0.30;;;;;;;9.97;58.95;97381.78;2012962;80;20192;-76
2021/01/21 03:42:38;;;;;;;0.79;0.26;;;;;;;9.92;59.14;97381.09;2013156;80;20426;-75
2021/01/21 03:45:40;;;;;;;2.00;0.40;;;;;;;9.93;59.82;97394.00;2011663;80;21250;-76
2021/01/21 03:48:41;;;;;;;1.64;0.30;;;;;;;9.88;59.56;97379.53;2013603;80;20329;-76
2021/01/21 03:51:43;;;;;;;2.03;0.32;;;;;;;9.87;59.63;97367.44;2012715;80;20200;-75
2021/01/21 03:54:44;;;;;;;0.52;0.30;;;;;;;9.89;59.81;97376.88;2012366;80;20678;-75
2021/01/21 03:57:46;;;;;;;0.56;0.26;;;;;;;9.94;59.80;97369.78;2012914;80;20716;-76
2021/01/21 04:00:48;;;;;;;0.77;0.30;;;;;;;9.93;59.83;97378.47;2011242;78;24115;-76
2021/01/21 04:03:50;;;;;;;1.15;0.30;;;;;;;9.91;59.93;97371.63;2012101;80;20334;-75
2021/01/21 04:06:52;;;;;;;0.90;0.30;;;;;;;9.94;59.60;97387.09;2011855;80;20314;-76
2021/01/21 04:09:53;;;;;;;1.94;0.36;;;;;;;9.98;59.99;97383.47;2012347;80;20249;-76
2021/01/21 04:12:55;;;;;;;0.99;0.20;;;;;;;9.94;60.22;97393.13;2011164;80;20332;-76
2021/01/21 04:15:56;;;;;;;0.25;0.20;;;;;;;10.00;59.79;97394.63;2010777;78;22039;-76
2021/01/21 04:18:58;;;;;;;0.39;0.30;;;;;;;10.04;59.95;97390.19;2012573;80;20868;-76
2021/01/21 04:22:00;;;;;;;0.45;0.30;;;;;;;10.05;60.08;97395.31;2012160;80;20465;-76
2021/01/21 04:25:01;;;;;;;0.44;0.30;;;;;;;10.07;60.21;97382.34;2012140;80;20323;-78
2021/01/21 04:28:03;;;;;;;1.70;0.30;;;;;;;10.07;60.31;97366.78;2011411;80;20723;-77
2021/01/21 04:31:06;;;;;;;0.91;0.25;;;;;;;10.07;60.39;97379.75;2009943;78;24610;-76
2021/01/21 04:34:08;;;;;;;0.39;0.20;;;;;;;10.06;60.34;97391.00;2010737;80;20318;-77
2021/01/21 04:37:09;;;;;;;1.00;0.43;;;;;;;10.06;60.48;97386.66;2011013;80;20208;-77
2021/01/21 04:40:12;;;;;;;0.79;0.21;;;;;;;10.04;60.55;97382.41;2011041;80;20190;-76
2021/01/21 04:43:13;;;;;;;1.29;0.26;;;;;;;10.06;60.51;97368.53;2011066;80;20430;-76
2021/01/21 04:46:15;;;;;;;0.66;0.31;;;;;;;10.06;60.65;97376.31;2010418;78;32459;-75
2021/01/21 04:49:18;;;;;;;1.75;0.30;;;;;;;10.02;61.03;97390.25;2010126;80;20295;-75
2021/01/21 04:52:22;;;;;;;0.94;0.34;;;;;;;10.00;61.27;97377.34;2013141;80;20354;-76
2021/01/21 04:55:43;;;;;;;0.44;0.30;;;;;;;10.02;61.21;97358.28;2010533;80;20188;-76
2021/01/21 04:58:50;;;;;;;0.54;0.30;;;;;;;10.00;61.71;97371.31;2010474;80;20184;-76
2021/01/21 05:01:52;;;;;;;0.50;0.30;;;;;;;10.03;61.35;97367.75;2010577;77;20631;-77
2021/01/21 05:04:54;;;;;;;0.30;0.20;;;;;;;10.04;61.48;97356.47;2010900;80;20169;-77
2021/01/21 05:07:57;;;;;;;0.30;0.30;;;;;;;10.05;61.64;97353.84;2011165;80;20212;-75
2021/01/21 05:10:59;;;;;;;0.49;0.20;;;;;;;10.04;61.79;97356.47;2009837;80;20206;-76
2021/01/21 05:14:01;;;;;;;0.40;0.28;;;;;;;10.04;61.98;97351.28;2010043;80;20313;-76
2021/01/21 05:17:03;;;;;;;1.98;0.30;;;;;;;10.05;61.92;97346.06;2008689;78;20585;-77
2021/01/21 05:20:06;;;;;;;0.79;0.30;;;;;;;10.06;62.04;97346.94;2010055;80;20180;-76
2021/01/21 05:23:07;;;;;;;0.63;0.38;;;;;;;10.04;62.15;97362.50;2009763;80;20168;-76
2021/01/21 05:26:10;;;;;;;0.60;0.35;;;;;;;10.06;61.98;97359.91;2009898;80;20728;-76
2021/01/21 05:29:12;;;;;;;1.52;0.31;;;;;;;10.05;62.27;97353.00;2010019;80;20351;-76
2021/01/21 05:32:16;;;;;;;1.04;0.20;;;;;;;10.06;62.12;97352.97;2008840;78;26857;-77
2021/01/21 05:35:19;;;;;;;1.42;0.41;;;;;;;10.11;62.14;97365.75;2010443;80;20414;-77
2021/01/21 05:38:21;;;;;;;0.26;0.20;;;;;;;10.09;62.61;97352.84;2009866;80;20283;-77
2021/01/21 05:41:27;;;;;;;2.06;0.30;;;;;;;10.13;62.47;97364.81;2010280;80;20680;-78
2021/01/21 05:44:30;;;;;;;0.21;0.20;;;;;;;10.12;62.52;97364.84;2009309;80;20196;-76
2021/01/21 05:47:32;;;;;;;1.06;0.30;;;;;;;10.17;62.47;97357.75;2009241;77;23803;-76
2021/01/21 05:50:35;;;;;;;0.44;0.32;;;;;;;10.16;62.70;97369.03;2006198;80;20773;-77
2021/01/21 05:53:38;;;;;;;0.21;0.20;;;;;;;10.20;62.78;97362.81;2009959;80;20423;-78
2021/01/21 05:56:40;;;;;;;0.69;0.30;;;;;;;10.25;62.73;97368.75;2009376;80;20180;-78
2021/01/21 05:59:43;;;;;;;0.30;0.17;;;;;;;10.22;63.00;97355.88;2010828;80;20970;-77
2021/01/21 06:02:48;;;;;;;0.80;0.30;;;;;;;10.24;63.17;97361.88;2009429;78;22213;-78
2021/01/21 06:05:50;;;;;;;0.80;0.20;;;;;;;10.23;63.15;97362.75;2010283;80;20208;-78
2021/01/21 06:08:52;;;;;;;0.31;0.28;;;;;;;10.22;63.74;97367.09;2015093;80;20229;-77
2021/01/21 06:12:05;;;;;;;0.47;0.32;;;;;;;10.21;63.90;97359.38;2009972;80;20225;-77
2021/01/21 06:15:09;;;;;;;0.40;0.20;;;;;;;10.24;64.21;97367.06;2009384;80;20302;-77
2021/01/21 06:18:11;;;;;;;1.06;0.20;;;;;;;10.23;64.40;97358.44;2008678;77;23496;-77
2021/01/21 06:21:18;;;;;;;0.29;0.10;;;;;;;10.21;64.58;97346.41;2007806;80;20212;-79
2021/01/21 06:24:25;;;;;;;0.11;0.11;;;;;;;10.18;64.96;97334.34;2007841;80;20224;-78
2021/01/21 06:27:29;;;;;;;0.60;0.20;;;;;;;10.13;65.15;97349.25;2008023;80;20180;-78
2021/01/21 06:30:32;;;;;;;0.55;0.20;;;;;;;10.08;65.31;97337.34;2006941;78;22618;-77
2021/01/21 06:33:40;;;;;;;0.49;0.20;;;;;;;10.02;65.60;97359.13;2007998;80;20184;-78
2021/01/21 06:36:48;;;;;;;0.46;0.20;;;;;;;10.00;65.76;97346.22;2008300;80;20779;-78
2021/01/21 06:40:00;;;;;;;0.14;0.10;;;;;;;9.98;65.85;97349.78;2007538;80;20176;-76
2021/01/21 06:43:18;;;;;;;0.73;0.22;;;;;;;9.95;66.32;97340.38;2009281;80;20300;-80
2021/01/21 06:46:20;;;;;;;0.26;0.17;;;;;;;9.92;66.40;97348.25;2007610;78;23148;-79
2021/01/21 06:49:23;;;;;;;1.11;0.29;;;;;;;9.92;66.56;97350.84;2009234;80;21337;-78
2021/01/21 06:52:27;;;;;;;0.32;0.20;;;;;;;9.93;66.55;97344.75;2009334;80;20455;-78
2021/01/21 06:55:30;;;;;;;0.40;0.20;;;;;;;9.97;66.53;97381.78;2008844;80;20446;-77
2021/01/21 06:58:52;;;;;;;0.31;0.20;;;;;;;10.00;66.54;97364.38;2009002;80;20192;-77
2021/01/21 07:01:54;;;;;;;0.47;0.19;;;;;;;9.98;67.03;97355.81;2008064;78;22623;-77
2021/01/21 07:05:20;;;;;;;0.30;0.20;;;;;;;9.97;67.94;97361.03;2008908;80;20198;-77
2021/01/21 07:08:21;;;;;;;1.14;0.30;;;;;;;9.86;69.77;97366.59;2008943;80;20321;-76
2021/01/21 07:11:23;;;;;;;0.57;0.24;;;;;;;9.72;71.05;97373.16;2009851;80;20361;-78
2021/01/21 07:14:27;;;;;;;1.77;0.28;;;;;;;9.68;71.00;97386.19;2011662;80;20184;-83
2021/01/21 07:17:29;;;;;;;0.20;0.20;;;;;;;9.65;71.47;97409.63;2013501;78;25084;-75
2021/01/21 07:20:33;;;;;;;0.57;0.20;;;;;;;9.60;70.67;97393.38;2010750;80;20333;-78
2021/01/21 07:23:49;;;;;;;0.29;0.11;;;;;;;9.64;70.68;97387.19;2019089;70;20710;-83
2021/01/21 07:26:52;;;;;;;0.20;0.20;;;;;;;9.64;70.36;97389.78;2040572;70;20530;-76
2021/01/21 07:30:16;;;;;;;0.43;0.20;;;;;;;9.67;70.30;97391.44;2016896;80;20309;-77
2021/01/21 07:33:24;;;;;;;2.89;0.28;;;;;;;9.69;69.91;97387.91;2014888;80;20184;-77
2021/01/21 07:36:29;;;;;;;0.46;0.30;;;;;;;9.72;70.09;97396.47;2004686;80;20332;-79
2021/01/21 07:39:49;;;;;;;0.47;0.20;;;;;;;9.73;69.64;97385.22;2005387;80;20797;-75
2021/01/21 07:42:54;;;;;;;0.20;0.20;;;;;;;9.77;69.69;97405.78;2008595;80;20277;-81
2021/01/21 07:46:22;;;;;;;0.20;0.20;;;;;;;9.81;69.38;97411.72;2009882;80;20348;-79
2021/01/21 07:49:26;;;;;;;0.20;0.20;;;;;;;9.85;69.29;97410.72;2010130;80;20355;-77
2021/01/21 07:52:38;;;;;;;0.85;0.28;;;;;;;9.88;69.51;97410.63;2010189;80;20208;-76
2021/01/21 07:55:40;;;;;;;0.46;0.20;;;;;;;9.85;70.03;97437.47;2010820;80;20306;-78
2021/01/21 07:58:42;;;;;;;0.21;0.16;;;;;;;9.83;71.16;97438.44;2009392;80;21166;-77
2021/01/21 08:01:59;;;;;;;1.77;0.20;;;;;;;9.79;71.99;97435.09;2008325;78;20330;-77
2021/01/21 08:05:01;;;;;;;0.71;0.20;;;;;;;9.72;72.53;97451.75;2008870;80;21097;-76
2021/01/21 08:08:04;;;;;;;1.41;0.20;;;;;;;9.71;72.83;97451.81;2008655;80;20333;-78
2021/01/21 08:11:08;;;;;;;1.01;0.30;;;;;;;9.66;73.43;97442.41;2008892;80;20321;-78
2021/01/21 08:14:10;;;;;;;0.30;0.20;;;;;;;9.59;73.86;97455.63;2008837;80;20766;-78
2021/01/21 08:17:11;;;;;;;0.79;0.20;;;;;;;9.62;73.88;97458.09;2008976;80;23262;-77
2021/01/21 08:20:14;;;;;;;0.84;0.30;;;;;;;9.62;74.07;97473.66;2009176;80;20208;-77
2021/01/21 08:23:16;;;;;;;0.20;0.19;;;;;;;9.61;74.16;97479.75;2008648;80;20348;-77
2021/01/21 08:26:18;;;;;;;0.25;0.20;;;;;;;9.58;74.71;97459.97;2009778;80;20457;-77
2021/01/21 08:29:19;;;;;;;0.40;0.22;;;;;;;9.54;75.46;97479.09;2008868;80;20334;-77
2021/01/21 08:32:21;;;;;;;0.30;0.30;;;;;;;9.51;75.89;97473.97;2008507;77;20344;-77
2021/01/21 08:35:26;;;;;;;1.71;0.68;;;;;;;9.45;76.59;97488.88;2009425;80;20593;-78
2021/01/21 08:38:30;;;;;;;0.61;0.40;;;;;;;9.41;77.30;97532.16;2012220;80;20346;-76
2021/01/21 08:41:32;;;;;;;0.80;0.22;;;;;;;9.33;78.44;97536.69;2010656;80;20369;-78
2021/01/21 08:44:34;;;;;;;0.19;0.11;;;;;;;9.14;78.17;97564.88;2010181;80;20302;-77
2021/01/21 08:47:45;;;;;;;0.59;0.20;;;;;;;8.95;78.23;97581.78;2009161;77;21874;-78
2021/01/21 08:50:47;;;;;;;0.17;0.10;;;;;;;8.71;78.31;97601.41;2009207;80;21374;-77
2021/01/21 08:53:48;;;;;;;0.40;0.10;;;;;;;8.45;78.69;97605.53;2008796;80;20349;-77
2021/01/21 08:57:10;;;;;;;2.38;0.10;;;;;;;8.26;79.22;97617.16;2009220;80;20330;-78
2021/01/21 09:00:13;;;;;;;0.10;0.10;;;;;;;8.08;79.48;97633.97;2008273;78;23222;-77
2021/01/21 09:03:31;;;;;;;0.20;0.10;;;;;;;7.90;79.76;97644.69;2009276;80;20914;-77
2021/01/21 09:06:41;;;;;;;0.54;0.10;;;;;;;7.75;80.24;97637.28;2009066;80;21129;-77
2021/01/21 09:09:50;;;;;;;0.55;0.20;;;;;;;7.65;80.35;97636.59;2008914;80;20318;-78
2021/01/21 09:13:01;;;;;;;0.25;0.00;;;;;;;7.52;80.74;97646.34;2010188;80;20342;-78
2021/01/21 09:16:05;;;;;;;0.41;0.09;;;;;;;7.46;81.13;97649.06;2010110;78;23505;-78
2021/01/21 09:19:15;;;;;;;0.36;0.00;;;;;;;7.45;81.70;97662.84;2011409;80;20346;-78
2021/01/21 09:22:22;;;;;;;0.54;0.10;;;;;;;7.42;81.89;97662.06;2010856;80;20372;-77
2021/01/21 09:25:27;;;;;;;0.10;0.10;;;;;;;7.39;82.00;97660.41;2010607;80;20896;-78
2021/01/21 09:28:29;;;;;;;0.15;0.15;;;;;;;7.42;82.07;97668.06;2011445;80;20334;-78
2021/01/21 09:31:32;;;;;;;0.82;0.10;;;;;;;7.38;82.38;97676.75;2009993;78;20386;-77
2021/01/21 09:34:33;;;;;;;0.10;0.10;;;;;;;7.38;82.29;97670.75;2010723;80;20733;-77
2021/01/21 09:37:37;;;;;;;0.10;0.10;;;;;;;7.41;82.20;97660.38;2010513;80;20347;-78
2021/01/21 09:40:39;;;;;;;1.25;0.13;;;;;;;7.42;82.01;97643.97;2010661;80;20371;-77
2021/01/21 09:43:41;;;;;;;0.17;0.10;;;;;;;7.44;81.83;97648.22;2010776;80;20336;-78
2021/01/21 09:46:54;;;;;;;0.54;0.20;;;;;;;7.48;81.80;97670.53;2010886;78;30129;-78
2021/01/21 09:49:57;;;;;;;0.56;0.19;;;;;;;7.52;81.89;97668.72;2011289;80;20317;-77
2021/01/21 09:53:00;;;;;;;0.46;0.16;;;;;;;7.49;81.45;97685.13;2011216;80;20375;-77
2021/01/21 09:56:02;;;;;;;0.74;0.17;;;;;;;7.43;80.54;97690.44;2010397;80;20763;-77
2021/01/21 09:59:04;;;;;;;0.69;0.20;;;;;;;7.36;79.84;97686.28;2010953;80;20322;-74
2021/01/21 10:02:06;;;;;;;0.15;0.13;;;;;;;7.32;80.18;97705.25;2008743;78;20330;-78
2021/01/21 10:05:08;;;;;;;0.30;0.10;;;;;;;7.22;79.97;97712.34;2012520;80;20383;-77
2021/01/21 10:08:11;;;;;;;0.41;0.16;;;;;;;7.15;79.97;97715.03;2012147;80;20322;-77
2021/01/21 10:11:13;;;;;;;0.96;0.10;;;;;;;7.09;80.13;97717.75;2011106;80;20318;-77
2021/01/21 10:14:15;;;;;;;0.98;0.26;;;;;;;7.06;80.21;97704.91;2010567;80;20326;-78
2021/01/21 10:17:17;;;;;;;0.61;0.20;;;;;;;7.00;79.83;97713.56;2009776;77;20461;-76
2021/01/21 10:20:19;;;;;;;0.16;0.10;;;;;;;7.07;79.94;97709.19;2011170;80;20396;-76
2021/01/21 10:23:20;;;;;;;0.81;0.10;;;;;;;7.00;79.51;97695.50;2010632;80;20347;-78
2021/01/21 10:26:22;;;;;;;0.38;0.16;;;;;;;7.03;79.69;97699.78;2010553;80;20338;-77
2021/01/21 10:29:24;;;;;;;1.21;0.20;;;;;;;7.08;79.91;97708.28;2011379;80;20310;-76
2021/01/21 10:32:25;;;;;;;1.49;0.10;;;;;;;7.06;80.20;97705.75;2009747;78;25193;-77
2021/01/21 10:35:27;;;;;;;1.48;0.49;;;;;;;7.02;79.42;97698.94;2011085;80;20454;-78
2021/01/21 10:38:29;;;;;;;1.54;0.10;;;;;;;7.03;79.01;97708.38;2011232;80;20363;-75
2021/01/21 10:41:31;;;;;;;5.59;1.41;;;;;;;7.06;78.95;97699.72;2010848;80;20355;-74
2021/01/21 10:44:33;;;;;;;5.09;0.80;;;;;;;7.05;77.91;97706.63;2010935;80;20326;-77
2021/01/21 10:47:34;;;;;;;2.71;0.20;;;;;;;7.08;78.19;97705.72;2010197;77;21040;-77
2021/01/21 10:50:36;;;;;;;0.44;0.10;;;;;;;7.08;78.33;97704.00;2009767;80;20338;-77
2021/01/21 10:53:38;;;;;;;0.63;0.20;;;;;;;7.05;78.68;97716.94;2010628;80;20379;-77
2021/01/21 10:56:39;;;;;;;2.26;0.20;;;;;;;7.02;78.80;97717.00;2010647;80;20322;-76
2021/01/21 10:59:41;;;;;;;1.24;0.20;;;;;;;7.02;78.78;97722.16;2011163;80;20404;-77
2021/01/21 11:02:43;;;;;;;2.06;0.34;;;;;;;6.98;78.42;97718.75;2010308;78;22971;-77
2021/01/21 11:05:45;;;;;;;1.19;0.20;;;;;;;6.96;78.44;97722.25;2010128;80;20330;-77
2021/01/21 11:08:47;;;;;;;0.84;0.16;;;;;;;6.98;78.47;97728.22;2010544;80;20314;-78
2021/01/21 11:11:49;;;;;;;1.83;0.41;;;;;;;6.95;78.13;97723.97;2009956;80;20373;-74
2021/01/21 11:14:53;;;;;;;0.28;0.13;;;;;;;7.01;77.85;97729.94;2010561;80;20347;-77
2021/01/21 11:17:57;;;;;;;1.59;0.20;;;;;;;7.00;78.26;97728.19;2009688;77;22462;-75
2021/01/21 11:20:58;;;;;;;0.91;0.20;;;;;;;6.99;77.81;97729.94;2010117;80;20342;-77
2021/01/21 11:24:00;;;;;;;0.73;0.20;;;;;;;7.05;78.09;97735.00;2007844;80;20655;-78
2021/01/21 11:27:02;;;;;;;1.71;0.20;;;;;;;7.08;78.15;97729.78;2007609;80;21241;-78
2021/01/21 11:30:07;;;;;;;0.39;0.20;;;;;;;7.15;77.96;97725.38;2007211;80;20352;-73
2021/01/21 11:33:08;;;;;;;1.24;0.30;;;;;;;7.19;77.83;97734.78;2007379;77;20424;-76
2021/01/21 11:36:10;;;;;;;1.74;0.28;;;;;;;7.21;77.69;97733.88;2007362;80;20377;-76
2021/01/21 11:39:13;;;;;;;0.94;0.20;;;;;;;7.28;77.63;97722.53;2007509;80;20322;-76
2021/01/21 11:42:15;;;;;;;2.28;0.30;;;;;;;7.36;77.67;97714.69;2007071;80;21318;-76
2021/01/21 11:45:16;;;;;;;0.93;0.20;;;;;;;7.43;77.46;97717.97;2006870;78;20337;-77
2021/01/21 11:48:18;;;;;;;0.93;0.30;;;;;;;7.51;76.98;97713.50;2007550;80;20371;-76
2021/01/21 11:51:20;;;;;;;0.64;0.30;;;;;;;7.58;75.57;97710.78;2007684;80;20431;-77
2021/01/21 11:54:22;;;;;;;1.21;0.30;;;;;;;7.72;75.36;97714.81;2007443;80;20310;-76
2021/01/21 11:57:23;;;;;;;0.60;0.30;;;;;;;7.85;75.12;97703.34;2008379;80;20795;-77
2021/01/21 12:00:34;;;;;;;1.91;0.41;;;;;;;7.96;74.59;97701.41;2007026;78;21070;-74
2021/01/21 12:03:36;;;;;;;1.04;0.41;;;;;;;8.05;73.74;97716.72;2008351;80;20322;-75
2021/01/21 12:06:39;;;;;;;0.43;0.21;;;;;;;8.21;73.40;97711.22;2008178;80;20375;-74
2021/01/21 12:09:41;;;;;;;1.33;0.25;;;;;;;8.33;73.30;97709.22;2008170;80;20331;-77
2021/01/21 12:12:42;;;;;;;3.30;0.40;;;;;;;8.38;72.02;97698.78;2008042;80;20343;-78
2021/01/21 12:15:44;;;;;;;1.80;0.30;;;;;;;8.42;71.40;97697.81;2009371;78;20822;-77
2021/01/21 12:18:46;;;;;;;1.45;0.35;;;;;;;8.42;70.59;97683.16;2010899;80;20340;-77
2021/01/21 12:21:47;;;;;;;2.29;0.74;;;;;;;8.53;71.04;97684.66;2010701;80;21126;-77
2021/01/21 12:24:49;;;;;;;1.58;0.30;;;;;;;8.69;71.17;97678.22;2010720;80;21185;-77
2021/01/21 12:27:50;;;;;;;1.66;0.30;;;;;;;8.79;71.15;97672.78;2010842;80;20355;-76
2021/01/21 12:30:52;;;;;;;3.95;0.40;;;;;;;8.87;70.54;97672.59;2007921;77;99815;-74
2021/01/21 12:33:55;;;;;;;2.05;0.40;;;;;;;8.93;69.02;97666.41;2009815;80;20331;-73
2021/01/21 12:36:59;;;;;;;4.56;0.40;;;;;;;8.93;68.51;97656.91;2010623;80;21142;-73
2021/01/21 12:40:01;;;;;;;2.21;0.46;;;;;;;8.98;68.47;97652.47;2011292;80;20363;-73
2021/01/21 12:43:04;;;;;;;2.69;0.70;;;;;;;8.99;68.21;97648.16;2010439;80;21211;-75
2021/01/21 12:46:06;;;;;;;2.83;0.60;;;;;;;9.02;68.29;97651.50;2010166;78;22131;-73
2021/01/21 12:49:08;;;;;;;1.77;0.30;;;;;;;9.07;68.58;97646.19;2011037;80;20344;-73
2021/01/21 12:52:11;;;;;;;3.14;0.40;;;;;;;9.14;68.73;97644.28;2010327;80;21086;-74
2021/01/21 12:55:13;;;;;;;2.91;0.40;;;;;;;9.22;68.33;97644.94;2011178;80;20331;-74
2021/01/21 12:58:15;;;;;;;2.29;0.41;;;;;;;9.27;68.55;97636.16;2011193;80;20469;-74
2021/01/21 13:01:16;;;;;;;1.69;0.39;;;;;;;9.30;67.23;97627.44;2009852;78;24758;-74
2021/01/21 13:04:18;;;;;;;1.19;0.40;;;;;;;9.34;67.21;97627.34;2010358;80;20353;-74
2021/01/21 13:07:20;;;;;;;1.69;0.36;;;;;;;9.39;67.85;97620.28;2010842;80;20322;-76
2021/01/21 13:10:23;;;;;;;2.35;0.57;;;;;;;9.46;67.54;97601.97;2011495;80;20314;-76
2021/01/21 13:13:26;;;;;;;1.71;0.35;;;;;;;9.53;67.33;97603.50;2010186;80;20356;-75
2021/01/21 13:16:28;;;;;;;1.35;0.30;;;;;;;9.54;66.60;97606.03;2009314;78;44463;-76
2021/01/21 13:19:34;;;;;;;2.00;0.34;;;;;;;9.55;66.99;97589.59;2010854;80;20837;-73
2021/01/21 13:22:35;;;;;;;2.06;0.31;;;;;;;9.59;66.78;97591.19;2010246;80;20321;-75
2021/01/21 13:25:37;;;;;;;2.34;0.40;;;;;;;9.61;66.47;97588.56;2010230;80;20913;-75
2021/01/21 13:28:38;;;;;;;1.44;0.30;;;;;;;9.62;65.54;97577.31;2010595;80;20204;-75
2021/01/21 13:31:40;;;;;;;2.85;0.52;;;;;;;9.63;65.53;97581.59;2010643;78;22010;-74
2021/01/21 13:34:42;;;;;;;2.20;0.63;;;;;;;9.64;65.70;97575.50;2010240;80;20371;-75
2021/01/21 13:37:44;;;;;;;1.85;0.40;;;;;;;9.59;66.11;97580.84;2010585;80;20326;-74
2021/01/21 13:40:46;;;;;;;3.54;0.38;;;;;;;9.55;66.34;97575.81;2010768;80;20916;-73
2021/01/21 13:43:47;;;;;;;2.83;0.34;;;;;;;9.52;66.21;97584.50;2009737;80;21046;-74
2021/01/21 13:46:49;;;;;;;1.88;0.32;;;;;;;9.53;65.92;97586.22;2009030;78;25024;-75
2021/01/21 13:49:51;;;;;;;3.05;0.49;;;;;;;9.54;65.75;97580.13;2008560;80;20366;-76
2021/01/21 13:52:52;;;;;;;3.38;0.57;;;;;;;9.55;65.13;97586.16;2010007;80;20340;-76
2021/01/21 13:55:54;;;;;;;2.78;0.79;;;;;;;9.55;64.85;97576.66;2009675;80;20350;-77
2021/01/21 13:58:56;;;;;;;3.28;0.40;;;;;;;9.56;65.60;97580.09;2010591;80;20306;-76
2021/01/21 14:01:58;;;;;;;1.38;0.35;;;;;;;9.55;65.26;97574.06;2009065;78;20402;-76
2021/01/21 14:05:00;;;;;;;3.84;0.60;;;;;;;9.53;65.94;97565.47;2013246;80;20348;-76
2021/01/21 14:08:06;;;;;;;5.38;0.89;;;;;;;9.51;65.42;97566.41;2010219;80;20180;-77
2021/01/21 14:11:07;;;;;;;3.75;0.51;;;;;;;9.51;66.11;97563.81;2009195;80;20734;-77
2021/01/21 14:14:09;;;;;;;1.84;0.68;;;;;;;9.51;66.00;97554.28;2011421;80;20318;-76
2021/01/21 14:17:11;;;;;;;2.45;0.39;;;;;;;9.52;65.65;97552.56;2009783;78;23748;-76
2021/01/21 14:20:13;;;;;;;2.45;0.45;;;;;;;9.55;65.99;97549.88;2010383;80;20354;-76
2021/01/21 14:23:14;;;;;;;1.99;0.50;;;;;;;9.57;66.33;97550.69;2010510;80;20362;-77
2021/01/21 14:26:16;;;;;;;0.69;0.22;;;;;;;9.54;65.95;97555.97;2010096;80;20333;-78
2021/01/21 14:29:18;;;;;;;3.94;0.40;;;;;;;9.54;66.02;97549.03;2010196;80;20342;-76
2021/01/21 14:32:20;;;;;;;1.89;0.31;;;;;;;9.53;66.30;97551.69;2009309;78;22200;-76
2021/01/21 14:35:22;;;;;;;2.78;0.49;;;;;;;9.49;66.11;97553.50;2009688;80;20334;-76